createdAt,value
2016-03-30T00:00:33.107Z,1006.41
2016-03-30T00:01:33.735Z,1006.4
2016-03-30T00:02:33.081Z,1006.38
2016-03-30T00:03:33.084Z,1006.39
2016-03-30T00:04:33.056Z,1006.39
2016-03-30T00:05:33.058Z,1006.38
2016-03-30T00:06:33.045Z,1006.41
2016-03-30T00:07:33.033Z,1006.42
2016-03-30T00:08:33.020Z,1006.38
2016-03-30T00:09:33.022Z,1006.39
2016-03-30T00:10:33.009Z,1006.4
2016-03-30T00:11:33.012Z,1006.38
2016-03-30T00:12:33.000Z,1006.39
2016-03-30T00:13:32.986Z,1006.36
2016-03-30T00:14:32.988Z,1006.35
2016-03-30T00:15:32.976Z,1006.38
2016-03-30T00:16:32.963Z,1006.36
2016-03-30T00:17:32.950Z,1006.39
2016-03-30T00:18:32.953Z,1006.38
2016-03-30T00:19:32.941Z,1006.37
2016-03-30T00:20:32.927Z,1006.35
2016-03-30T00:21:32.913Z,1006.36
2016-03-30T00:22:32.917Z,1006.38
2016-03-30T00:23:32.904Z,1006.39
2016-03-30T00:24:32.891Z,1006.39
2016-03-30T00:25:32.893Z,1006.41
2016-03-30T00:26:32.896Z,1006.45
2016-03-30T00:27:32.868Z,1006.43
2016-03-30T00:28:32.854Z,1006.41
2016-03-30T00:29:32.857Z,1006.44
2016-03-30T00:30:32.845Z,1006.39
2016-03-30T00:31:32.831Z,1006.42
2016-03-30T00:32:32.818Z,1006.38
2016-03-30T00:33:32.820Z,1006.41
2016-03-30T00:34:32.808Z,1006.42
2016-03-30T00:35:32.795Z,1006.41
2016-03-30T00:36:32.781Z,1006.41
2016-03-30T00:37:32.785Z,1006.43
2016-03-30T00:38:32.772Z,1006.41
2016-03-30T00:39:32.759Z,1006.44
2016-03-30T00:40:32.762Z,1006.45
2016-03-30T00:41:32.749Z,1006.43
2016-03-30T00:42:32.736Z,1006.4
2016-03-30T00:43:32.722Z,1006.41
2016-03-30T00:44:32.726Z,1006.39
2016-03-30T00:45:32.713Z,1006.37
2016-03-30T00:46:32.700Z,1006.35
2016-03-30T00:47:32.686Z,1006.36
2016-03-30T00:48:32.689Z,1006.3
2016-03-30T00:49:32.677Z,1006.35
2016-03-30T00:50:32.664Z,1006.36
2016-03-30T00:51:32.652Z,1006.34
2016-03-30T00:52:32.638Z,1006.37
2016-03-30T00:53:32.640Z,1006.36
2016-03-30T00:54:32.627Z,1006.38
2016-03-30T00:55:32.615Z,1006.39
2016-03-30T00:56:32.618Z,1006.39
2016-03-30T00:57:32.604Z,1006.37
2016-03-30T00:58:32.591Z,1006.38
2016-03-30T00:59:32.579Z,1006.39
2016-03-30T01:00:32.581Z,1006.37
2016-03-30T01:01:32.569Z,1006.38
2016-03-30T01:02:32.571Z,1006.36
2016-03-30T01:03:32.559Z,1006.36
2016-03-30T01:05:32.532Z,1006.46
2016-03-30T01:06:32.517Z,1006.43
2016-03-30T01:07:33.774Z,1006.47
2016-03-30T01:08:33.594Z,1006.51
2016-03-30T01:09:32.461Z,1006.5
2016-03-30T01:10:32.438Z,1006.58
2016-03-30T01:11:33.822Z,1006.56
2016-03-30T01:12:32.414Z,1006.57
2016-03-30T01:13:32.397Z,1006.52
2016-03-30T01:14:32.380Z,1006.48
2016-03-30T01:16:34.283Z,1006.47
2016-03-30T01:17:32.347Z,1006.46
2016-03-30T01:18:32.488Z,1006.44
2016-03-30T01:19:32.334Z,1006.43
2016-03-30T01:20:32.304Z,1006.42
2016-03-30T01:21:32.305Z,1006.43
2016-03-30T01:22:32.292Z,1006.42
2016-03-30T01:23:32.279Z,1006.39
2016-03-30T01:24:32.265Z,1006.36
2016-03-30T01:25:32.267Z,1006.42
2016-03-30T01:26:32.254Z,1006.39
2016-03-30T01:27:32.242Z,1006.39
2016-03-30T01:28:32.244Z,1006.3
2016-03-30T01:29:32.231Z,1006.31
2016-03-30T01:30:32.218Z,1006.3
2016-03-30T01:31:32.205Z,1006.29
2016-03-30T01:32:32.208Z,1006.31
2016-03-30T01:33:32.195Z,1006.33
2016-03-30T01:34:32.183Z,1006.29
2016-03-30T01:35:32.169Z,1006.3
2016-03-30T01:36:32.155Z,1006.25
2016-03-30T01:37:32.158Z,1006.26
2016-03-30T01:38:32.146Z,1006.26
2016-03-30T01:39:32.133Z,1006.26
2016-03-30T01:40:32.120Z,1006.27
2016-03-30T01:41:32.107Z,1006.26
2016-03-30T01:42:32.110Z,1006.29
2016-03-30T01:43:32.096Z,1006.28
2016-03-30T01:44:32.085Z,1006.26
2016-03-30T01:45:32.071Z,1006.22
2016-03-30T01:46:32.074Z,1006.22
2016-03-30T01:47:32.058Z,1006.21
2016-03-30T01:48:32.045Z,1006.19
2016-03-30T01:49:32.049Z,1006.2
2016-03-30T01:50:32.035Z,1006.2
2016-03-30T01:51:32.022Z,1006.19
2016-03-30T01:52:32.010Z,1006.18
2016-03-30T01:53:31.996Z,1006.17
2016-03-30T01:54:31.998Z,1006.15
2016-03-30T01:55:31.986Z,1006.15
2016-03-30T01:56:31.973Z,1006.13
2016-03-30T01:57:31.960Z,1006.14
2016-03-30T01:58:31.948Z,1006.16
2016-03-30T01:59:31.950Z,1006.17
2016-03-30T02:00:31.936Z,1006.18
2016-03-30T02:01:31.923Z,1006.21
2016-03-30T02:02:31.911Z,1006.19
2016-03-30T02:03:31.914Z,1006.15
2016-03-30T02:04:31.900Z,1006.22
2016-03-30T02:05:31.888Z,1006.23
2016-03-30T02:06:31.891Z,1006.21
2016-03-30T02:07:31.877Z,1006.24
2016-03-30T02:08:31.864Z,1006.23
2016-03-30T02:09:31.852Z,1006.19
2016-03-30T02:10:31.839Z,1006.19
2016-03-30T02:11:31.841Z,1006.16
2016-03-30T02:12:31.828Z,1006.11
2016-03-30T02:13:31.815Z,1006.11
2016-03-30T02:14:31.819Z,1006.08
2016-03-30T02:15:31.790Z,1006.01
2016-03-30T02:16:31.792Z,1005.97
2016-03-30T02:17:31.780Z,1005.94
2016-03-30T02:18:31.766Z,1005.92
2016-03-30T02:19:31.769Z,1005.87
2016-03-30T02:20:31.757Z,1005.86
2016-03-30T02:22:31.730Z,1005.87
2016-03-30T02:23:31.733Z,1005.87
2016-03-30T02:24:31.720Z,1005.9
2016-03-30T02:25:31.707Z,1005.92
2016-03-30T02:26:31.695Z,1005.97
2016-03-30T02:27:31.682Z,1005.95
2016-03-30T02:28:31.684Z,1005.94
2016-03-30T02:29:31.671Z,1005.91
2016-03-30T02:30:31.659Z,1005.91
2016-03-30T02:31:31.646Z,1005.9
2016-03-30T02:33:31.635Z,1005.84
2016-03-30T02:34:31.622Z,1005.83
2016-03-30T02:35:31.609Z,1005.78
2016-03-30T02:36:31.753Z,1005.76
2016-03-30T02:37:31.600Z,1005.71
2016-03-30T02:38:31.586Z,1005.64
2016-03-30T02:39:31.589Z,1005.61
2016-03-30T02:40:31.575Z,1005.62
2016-03-30T02:41:31.563Z,1005.62
2016-03-30T02:42:31.550Z,1005.59
2016-03-30T02:43:31.553Z,1005.62
2016-03-30T02:44:31.539Z,1005.58
2016-03-30T02:45:31.527Z,1005.55
2016-03-30T02:46:31.514Z,1005.57
2016-03-30T02:47:31.516Z,1005.61
2016-03-30T02:48:31.504Z,1005.59
2016-03-30T02:49:31.490Z,1005.61
2016-03-30T02:50:31.478Z,1005.6
2016-03-30T02:51:31.480Z,1005.62
2016-03-30T02:52:31.468Z,1005.62
2016-03-30T02:53:31.471Z,1005.65
2016-03-30T02:54:31.457Z,1005.61
2016-03-30T02:55:31.444Z,1005.62
2016-03-30T02:56:31.432Z,1005.61
2016-03-30T02:57:31.418Z,1005.61
2016-03-30T02:58:31.422Z,1005.62
2016-03-30T02:59:31.409Z,1005.6
2016-03-30T03:00:31.395Z,1005.59
2016-03-30T03:01:31.382Z,1005.61
2016-03-30T03:02:31.385Z,1005.63
2016-03-30T03:03:31.372Z,1005.64
2016-03-30T03:04:31.359Z,1005.66
2016-03-30T03:05:31.362Z,1005.61
2016-03-30T03:06:31.349Z,1005.64
2016-03-30T03:07:31.336Z,1005.64
2016-03-30T03:08:31.323Z,1005.64
2016-03-30T03:09:31.326Z,1005.63
2016-03-30T03:10:31.313Z,1005.61
2016-03-30T03:11:31.300Z,1005.61
2016-03-30T03:12:31.303Z,1005.59
2016-03-30T03:13:31.289Z,1005.64
2016-03-30T03:14:31.277Z,1005.67
2016-03-30T03:15:31.280Z,1005.68
2016-03-30T03:16:31.251Z,1005.71
2016-03-30T03:17:31.254Z,1005.73
2016-03-30T03:18:31.242Z,1005.77
2016-03-30T03:19:31.227Z,1005.74
2016-03-30T03:20:31.231Z,1005.74
2016-03-30T03:21:31.219Z,1005.72
2016-03-30T03:22:31.205Z,1005.66
2016-03-30T03:23:31.192Z,1005.71
2016-03-30T03:24:31.195Z,1005.69
2016-03-30T03:25:31.182Z,1005.73
2016-03-30T03:26:31.169Z,1005.68
2016-03-30T03:27:31.172Z,1005.73
2016-03-30T03:28:31.158Z,1005.69
2016-03-30T03:29:31.146Z,1005.69
2016-03-30T03:30:31.149Z,1005.69
2016-03-30T03:31:31.135Z,1005.68
2016-03-30T03:32:31.122Z,1005.6
2016-03-30T03:33:31.109Z,1005.61
2016-03-30T03:34:31.112Z,1005.62
2016-03-30T03:35:31.099Z,1005.53
2016-03-30T03:36:31.086Z,1005.49
2016-03-30T03:37:31.074Z,1005.45
2016-03-30T03:38:31.076Z,1005.42
2016-03-30T03:39:31.063Z,1005.44
2016-03-30T03:40:31.051Z,1005.42
2016-03-30T03:41:31.100Z,1005.43
2016-03-30T03:42:31.040Z,1005.49
2016-03-30T03:43:31.027Z,1005.43
2016-03-30T03:44:31.030Z,1005.46
2016-03-30T03:45:31.267Z,1005.39
2016-03-30T03:46:31.003Z,1005.36
2016-03-30T03:47:30.992Z,1005.34
2016-03-30T03:48:30.994Z,1005.32
2016-03-30T03:49:30.981Z,1005.3
2016-03-30T03:50:31.218Z,1005.29
2016-03-30T03:51:31.064Z,1005.22
2016-03-30T03:52:30.958Z,1005.22
2016-03-30T03:53:30.944Z,1005.22
2016-03-30T03:54:30.947Z,1005.2
2016-03-30T03:55:30.935Z,1005.18
2016-03-30T03:56:30.921Z,1005.14
2016-03-30T03:57:30.924Z,1005.12
2016-03-30T03:58:31.129Z,1005.12
2016-03-30T03:59:30.898Z,1005.14
2016-03-30T04:00:30.901Z,1005.12
2016-03-30T04:01:30.888Z,1005.13
2016-03-30T04:02:30.874Z,1005.16
2016-03-30T04:03:30.862Z,1005.21
2016-03-30T04:04:30.865Z,1005.2
2016-03-30T04:05:30.851Z,1005.2
2016-03-30T04:06:30.854Z,1005.16
2016-03-30T04:07:30.826Z,1005.17
2016-03-30T04:08:30.829Z,1005.18
2016-03-30T04:09:30.815Z,1005.15
2016-03-30T04:10:30.818Z,1005.13
2016-03-30T04:11:30.806Z,1005.11
2016-03-30T04:12:30.808Z,1005.11
2016-03-30T04:13:30.779Z,1005.13
2016-03-30T04:14:30.781Z,1005.14
2016-03-30T04:15:30.769Z,1005.18
2016-03-30T04:16:30.756Z,1005.15
2016-03-30T04:17:30.758Z,1005.13
2016-03-30T04:18:30.747Z,1005.18
2016-03-30T04:19:30.733Z,1005.15
2016-03-30T04:20:30.736Z,1005.14
2016-03-30T04:21:30.723Z,1005.14
2016-03-30T04:22:30.711Z,1005.1
2016-03-30T04:23:30.713Z,1005.13
2016-03-30T04:24:30.700Z,1005.13
2016-03-30T04:25:30.702Z,1005.18
2016-03-30T04:26:30.689Z,1005.13
2016-03-30T04:27:30.677Z,1005.11
2016-03-30T04:28:30.680Z,1005.04
2016-03-30T04:29:30.667Z,1005.04
2016-03-30T04:30:30.654Z,1005.03
2016-03-30T04:31:30.641Z,1005.05
2016-03-30T04:32:30.644Z,1005.04
2016-03-30T04:33:30.630Z,1004.99
2016-03-30T04:34:30.618Z,1004.99
2016-03-30T04:35:30.620Z,1004.94
2016-03-30T04:36:30.607Z,1004.96
2016-03-30T04:37:30.594Z,1004.97
2016-03-30T04:38:30.596Z,1004.96
2016-03-30T04:39:30.584Z,1004.99
2016-03-30T04:40:30.586Z,1004.94
2016-03-30T04:41:30.573Z,1004.94
2016-03-30T04:42:30.561Z,1004.94
2016-03-30T04:43:30.578Z,1004.95
2016-03-30T04:44:30.551Z,1005
2016-03-30T04:45:30.553Z,1005.01
2016-03-30T04:46:30.525Z,1005.05
2016-03-30T04:47:30.528Z,1005.01
2016-03-30T04:48:30.515Z,1004.98
2016-03-30T04:49:30.517Z,1004.96
2016-03-30T04:50:30.504Z,1004.9
2016-03-30T04:51:30.506Z,1004.84
2016-03-30T04:52:30.494Z,1004.87
2016-03-30T04:53:30.481Z,1004.86
2016-03-30T04:54:30.468Z,1004.87
2016-03-30T04:55:30.455Z,1004.89
2016-03-30T04:56:30.457Z,1004.87
2016-03-30T04:57:30.444Z,1004.87
2016-03-30T04:58:30.432Z,1004.92
2016-03-30T04:59:30.434Z,1004.8
2016-03-30T05:00:30.422Z,1004.81
2016-03-30T05:01:30.815Z,1004.81
2016-03-30T05:02:30.411Z,1004.84
2016-03-30T05:03:30.868Z,1004.78
2016-03-30T05:04:30.385Z,1004.77
2016-03-30T05:05:30.388Z,1004.89
2016-03-30T05:06:30.500Z,1004.92
2016-03-30T05:07:30.378Z,1004.92
2016-03-30T05:09:30.368Z,1004.9
2016-03-30T05:10:30.355Z,1004.87
2016-03-30T05:11:30.342Z,1004.91
2016-03-30T05:12:30.985Z,1005
2016-03-30T05:13:30.332Z,1004.97
2016-03-30T05:14:31.288Z,1004.92
2016-03-30T05:15:30.321Z,1004.97
2016-03-30T05:16:30.309Z,1005.04
2016-03-30T05:17:30.295Z,1005.04
2016-03-30T05:18:30.298Z,1005.03
2016-03-30T05:19:30.285Z,1004.99
2016-03-30T05:20:30.288Z,1004.98
2016-03-30T05:21:30.275Z,1004.99
2016-03-30T05:22:30.277Z,1004.99
2016-03-30T05:23:30.249Z,1005
2016-03-30T05:24:30.252Z,1004.97
2016-03-30T05:25:30.239Z,1004.94
2016-03-30T05:26:30.242Z,1004.9
2016-03-30T05:27:30.228Z,1004.87
2016-03-30T05:28:30.216Z,1004.84
2016-03-30T05:29:30.219Z,1004.86
2016-03-30T05:30:30.205Z,1004.84
2016-03-30T05:31:30.208Z,1004.83
2016-03-30T05:32:30.195Z,1004.81
2016-03-30T05:33:30.182Z,1004.74
2016-03-30T05:34:30.185Z,1004.75
2016-03-30T05:35:30.171Z,1004.78
2016-03-30T05:36:30.174Z,1004.89
2016-03-30T05:37:30.161Z,1004.94
2016-03-30T05:38:30.148Z,1004.95
2016-03-30T05:39:30.135Z,1004.94
2016-03-30T05:40:30.138Z,1004.89
2016-03-30T05:41:30.126Z,1004.89
2016-03-30T05:42:30.129Z,1004.88
2016-03-30T05:43:30.115Z,1004.86
2016-03-30T05:44:30.103Z,1004.89
2016-03-30T05:45:30.106Z,1004.96
2016-03-30T05:46:30.092Z,1004.91
2016-03-30T05:47:30.095Z,1005
2016-03-30T05:48:30.081Z,1005.06
2016-03-30T05:49:30.069Z,1005.11
2016-03-30T05:50:30.072Z,1005.22
2016-03-30T05:51:30.058Z,1005.31
2016-03-30T05:52:30.062Z,1005.38
2016-03-30T05:53:30.048Z,1005.42
2016-03-30T05:54:30.051Z,1005.42
2016-03-30T05:55:30.039Z,1005.44
2016-03-30T05:56:30.041Z,1005.42
2016-03-30T05:57:30.028Z,1005.4
2016-03-30T05:58:30.015Z,1005.37
2016-03-30T05:59:30.018Z,1005.33
2016-03-30T06:00:30.005Z,1005.38
2016-03-30T06:01:29.992Z,1005.4
2016-03-30T06:02:29.994Z,1005.4
2016-03-30T06:03:29.982Z,1005.34
2016-03-30T06:04:29.984Z,1005.3
2016-03-30T06:05:29.971Z,1005.27
2016-03-30T06:06:29.958Z,1005.27
2016-03-30T06:07:29.961Z,1005.23
2016-03-30T06:08:29.949Z,1005.22
2016-03-30T06:09:29.951Z,1005.19
2016-03-30T06:10:29.938Z,1005.17
2016-03-30T06:11:29.941Z,1005.19
2016-03-30T06:12:29.943Z,1005.16
2016-03-30T06:13:29.915Z,1005.1
2016-03-30T06:14:29.917Z,1005.07
2016-03-30T06:15:29.920Z,1005.14
2016-03-30T06:16:29.907Z,1005.13
2016-03-30T06:17:29.894Z,1005.09
2016-03-30T06:18:30.787Z,1005.07
2016-03-30T06:19:29.883Z,1005
2016-03-30T06:20:29.886Z,1005.02
2016-03-30T06:21:30.686Z,1005
2016-03-30T06:22:29.860Z,1004.96
2016-03-30T06:23:30.644Z,1004.92
2016-03-30T06:24:30.819Z,1004.88
2016-03-30T06:25:29.853Z,1004.91
2016-03-30T06:26:29.841Z,1004.89
2016-03-30T06:27:29.890Z,1004.85
2016-03-30T06:28:29.971Z,1004.82
2016-03-30T06:29:29.817Z,1004.79
2016-03-30T06:30:29.819Z,1004.72
2016-03-30T06:32:29.810Z,1004.73
2016-03-30T06:33:29.796Z,1004.7
2016-03-30T06:34:29.800Z,1004.69
2016-03-30T06:35:29.802Z,1004.67
2016-03-30T06:36:29.993Z,1004.7
2016-03-30T06:37:29.777Z,1004.73
2016-03-30T06:38:29.966Z,1004.7
2016-03-30T06:39:29.766Z,1004.72
2016-03-30T06:40:29.753Z,1004.7
2016-03-30T06:41:29.756Z,1004.66
2016-03-30T06:42:29.743Z,1004.71
2016-03-30T06:43:29.729Z,1004.7
2016-03-30T06:44:29.732Z,1004.67
2016-03-30T06:45:29.734Z,1004.63
2016-03-30T06:46:29.723Z,1004.63
2016-03-30T06:47:29.725Z,1004.64
2016-03-30T06:48:29.712Z,1004.62
2016-03-30T06:49:29.699Z,1004.67
2016-03-30T06:50:29.701Z,1004.67
2016-03-30T06:51:29.689Z,1004.63
2016-03-30T06:52:29.675Z,1004.61
2016-03-30T06:53:29.678Z,1004.64
2016-03-30T06:54:29.666Z,1004.61
2016-03-30T06:55:29.668Z,1004.61
2016-03-30T06:56:29.655Z,1004.56
2016-03-30T06:57:29.658Z,1004.55
2016-03-30T06:58:29.644Z,1004.51
2016-03-30T06:59:29.648Z,1004.51
2016-03-30T07:00:29.635Z,1004.5
2016-03-30T07:01:29.638Z,1004.5
2016-03-30T07:02:29.625Z,1004.44
2016-03-30T07:03:29.611Z,1004.45
2016-03-30T07:04:29.614Z,1004.44
2016-03-30T07:05:29.602Z,1004.41
2016-03-30T07:06:29.604Z,1004.37
2016-03-30T07:07:29.591Z,1004.36
2016-03-30T07:08:29.594Z,1004.37
2016-03-30T07:09:29.582Z,1004.37
2016-03-30T07:10:29.585Z,1004.34
2016-03-30T07:11:29.571Z,1004.34
2016-03-30T07:12:29.574Z,1004.36
2016-03-30T07:13:29.561Z,1004.31
2016-03-30T07:14:29.549Z,1004.31
2016-03-30T07:15:29.552Z,1004.26
2016-03-30T07:16:29.554Z,1004.24
2016-03-30T07:17:29.541Z,1004.23
2016-03-30T07:18:29.528Z,1004.27
2016-03-30T07:19:29.530Z,1004.28
2016-03-30T07:20:29.518Z,1004.25
2016-03-30T07:21:29.520Z,1004.29
2016-03-30T07:22:29.507Z,1004.32
2016-03-30T07:23:29.510Z,1004.25
2016-03-30T07:24:29.497Z,1004.23
2016-03-30T07:25:29.500Z,1004.22
2016-03-30T07:26:29.487Z,1004.23
2016-03-30T07:27:29.474Z,1004.24
2016-03-30T07:28:29.477Z,1004.19
2016-03-30T07:29:29.479Z,1004.15
2016-03-30T07:30:29.467Z,1004.15
2016-03-30T07:31:29.470Z,1004.17
2016-03-30T07:32:29.456Z,1004.16
2016-03-30T07:33:29.459Z,1004.2
2016-03-30T07:34:29.445Z,1004.18
2016-03-30T07:35:29.433Z,1004.14
2016-03-30T07:36:29.436Z,1004.07
2016-03-30T07:38:29.426Z,1004.11
2016-03-30T07:39:29.413Z,1004.14
2016-03-30T07:40:30.337Z,1004.15
2016-03-30T07:41:29.402Z,1004.17
2016-03-30T07:42:30.374Z,1004.14
2016-03-30T07:43:30.845Z,1004.11
2016-03-30T07:44:29.395Z,1004.14
2016-03-30T07:45:29.383Z,1004.12
2016-03-30T07:47:29.372Z,1004.18
2016-03-30T07:48:29.421Z,1004.17
2016-03-30T07:49:29.361Z,1004.06
2016-03-30T07:51:29.555Z,1004
2016-03-30T07:52:29.354Z,1004.04
2016-03-30T07:53:29.340Z,1003.95
2016-03-30T07:54:29.343Z,1003.99
2016-03-30T07:55:29.346Z,1004.02
2016-03-30T07:56:29.521Z,1004.01
2016-03-30T07:57:29.320Z,1004.12
2016-03-30T07:58:29.323Z,1004.15
2016-03-30T07:59:29.310Z,1004.13
2016-03-30T08:00:29.313Z,1004.09
2016-03-30T08:01:29.300Z,1004.07
2016-03-30T08:02:29.303Z,1004.04
2016-03-30T08:03:29.290Z,1004.02
2016-03-30T08:04:29.292Z,1004.05
2016-03-30T08:05:29.305Z,1004.11
2016-03-30T08:06:29.276Z,1004.04
2016-03-30T08:07:29.263Z,1004.09
2016-03-30T08:08:30.378Z,1004.12
2016-03-30T08:09:29.269Z,1004.14
2016-03-30T08:10:29.244Z,1004.17
2016-03-30T08:11:29.247Z,1004.17
2016-03-30T08:12:29.234Z,1004.13
2016-03-30T08:13:29.237Z,1004.23
2016-03-30T08:14:29.223Z,1004.22
2016-03-30T08:15:29.226Z,1004.28
2016-03-30T08:16:29.213Z,1004.3
2016-03-30T08:17:29.217Z,1004.32
2016-03-30T08:18:29.203Z,1004.27
2016-03-30T08:19:29.206Z,1004.27
2016-03-30T08:20:29.208Z,1004.32
2016-03-30T08:21:29.195Z,1004.37
2016-03-30T08:22:29.198Z,1004.34
2016-03-30T08:23:29.185Z,1004.43
2016-03-30T08:24:29.204Z,1004.44
2016-03-30T08:25:29.191Z,1004.33
2016-03-30T08:26:29.178Z,1004.32
2016-03-30T08:27:29.180Z,1004.27
2016-03-30T08:28:29.183Z,1004.25
2016-03-30T08:29:29.171Z,1004.28
2016-03-30T08:30:29.174Z,1004.24
2016-03-30T08:31:29.161Z,1004.21
2016-03-30T08:32:29.164Z,1004.11
2016-03-30T08:33:29.150Z,1004.13
2016-03-30T08:34:29.153Z,1004.17
2016-03-30T08:35:29.147Z,1004.19
2016-03-30T08:36:29.149Z,1004.23
2016-03-30T08:37:29.136Z,1004.25
2016-03-30T08:38:29.139Z,1004.29
2016-03-30T08:39:29.141Z,1004.3
2016-03-30T08:40:29.128Z,1004.33
2016-03-30T08:41:29.130Z,1004.28
2016-03-30T08:42:29.133Z,1004.3
2016-03-30T08:43:29.121Z,1004.35
2016-03-30T08:44:29.131Z,1004.43
2016-03-30T08:45:29.117Z,1004.37
2016-03-30T08:46:29.120Z,1004.35
2016-03-30T08:47:29.107Z,1004.37
2016-03-30T08:48:29.110Z,1004.45
2016-03-30T08:49:29.112Z,1004.39
2016-03-30T08:50:29.100Z,1004.45
2016-03-30T08:51:29.103Z,1004.43
2016-03-30T08:52:29.106Z,1004.43
2016-03-30T08:53:29.092Z,1004.46
2016-03-30T08:54:29.095Z,1004.46
2016-03-30T08:55:29.098Z,1004.42
2016-03-30T08:56:29.085Z,1004.43
2016-03-30T08:57:29.087Z,1004.52
2016-03-30T08:58:29.136Z,1004.53
2016-03-30T08:59:29.078Z,1004.53
2016-03-30T09:00:30.533Z,1004.56
2016-03-30T09:01:29.067Z,1004.62
2016-03-30T09:02:29.069Z,1004.54
2016-03-30T09:03:29.072Z,1004.51
2016-03-30T09:04:29.841Z,1004.56
2016-03-30T09:05:29.060Z,1004.52
2016-03-30T09:07:29.049Z,1004.66
2016-03-30T09:08:29.255Z,1004.7
2016-03-30T09:10:30.824Z,1004.69
2016-03-30T09:11:29.044Z,1004.68
2016-03-30T09:12:29.297Z,1004.68
2016-03-30T09:13:29.050Z,1004.64
2016-03-30T09:14:29.038Z,1004.66
2016-03-30T09:15:29.040Z,1004.68
2016-03-30T09:16:29.027Z,1004.67
2016-03-30T09:17:29.030Z,1004.57
2016-03-30T09:18:29.032Z,1004.55
2016-03-30T09:19:29.035Z,1004.64
2016-03-30T09:20:29.021Z,1004.67
2016-03-30T09:21:29.025Z,1004.64
2016-03-30T09:22:29.027Z,1004.7
2016-03-30T09:23:29.015Z,1004.77
2016-03-30T09:24:29.017Z,1004.77
2016-03-30T09:25:29.019Z,1004.8
2016-03-30T09:26:29.022Z,1004.73
2016-03-30T09:27:29.026Z,1004.69
2016-03-30T09:28:29.012Z,1004.68
2016-03-30T09:29:29.014Z,1004.62
2016-03-30T09:30:29.017Z,1004.55
2016-03-30T09:31:29.005Z,1004.56
2016-03-30T09:32:29.008Z,1004.53
2016-03-30T09:33:29.010Z,1004.51
2016-03-30T09:34:28.997Z,1004.57
2016-03-30T09:35:29.000Z,1004.65
2016-03-30T09:36:29.003Z,1004.65
2016-03-30T09:37:28.989Z,1004.7
2016-03-30T09:38:28.992Z,1004.76
2016-03-30T09:39:28.994Z,1004.77
2016-03-30T09:40:28.997Z,1004.83
2016-03-30T09:41:28.985Z,1004.79
2016-03-30T09:42:28.988Z,1004.7
2016-03-30T09:43:28.990Z,1004.68
2016-03-30T09:44:28.977Z,1004.66
2016-03-30T09:45:28.980Z,1004.68
2016-03-30T09:46:28.982Z,1004.75
2016-03-30T09:47:28.969Z,1004.9
2016-03-30T09:48:28.972Z,1005
2016-03-30T09:49:28.974Z,1005.01
2016-03-30T09:50:28.962Z,1005.02
2016-03-30T09:51:28.965Z,1004.96
2016-03-30T09:52:28.968Z,1004.93
2016-03-30T09:53:28.970Z,1004.87
2016-03-30T09:54:28.973Z,1004.83
2016-03-30T09:55:28.960Z,1004.82
2016-03-30T09:56:28.962Z,1004.83
2016-03-30T09:57:28.965Z,1004.84
2016-03-30T09:58:28.968Z,1004.91
2016-03-30T09:59:28.955Z,1004.91
2016-03-30T10:00:28.958Z,1004.84
2016-03-30T10:01:28.944Z,1004.78
2016-03-30T10:02:28.964Z,1004.75
2016-03-30T10:03:28.950Z,1004.72
2016-03-30T10:04:28.953Z,1004.75
2016-03-30T10:05:28.955Z,1004.77
2016-03-30T10:06:28.942Z,1004.8
2016-03-30T10:07:28.945Z,1004.86
2016-03-30T10:08:28.948Z,1004.82
2016-03-30T10:09:28.951Z,1004.77
2016-03-30T10:10:28.953Z,1004.82
2016-03-30T10:11:28.940Z,1004.77
2016-03-30T10:12:28.943Z,1004.73
2016-03-30T10:13:28.943Z,1004.74
2016-03-30T10:14:28.920Z,1004.82
2016-03-30T10:15:29.615Z,1004.79
2016-03-30T10:16:29.796Z,1004.72
2016-03-30T10:17:28.896Z,1004.71
2016-03-30T10:18:28.891Z,1004.8
2016-03-30T10:19:29.186Z,1004.87
2016-03-30T10:20:28.873Z,1004.86
2016-03-30T10:21:28.871Z,1004.9
2016-03-30T10:22:29.745Z,1004.95
2016-03-30T10:23:28.854Z,1004.97
2016-03-30T10:25:28.857Z,1004.96
2016-03-30T10:26:28.858Z,1004.96
2016-03-30T10:27:28.859Z,1004.94
2016-03-30T10:28:29.642Z,1004.94
2016-03-30T10:29:29.363Z,1004.91
2016-03-30T10:30:28.849Z,1004.76
2016-03-30T10:31:29.414Z,1004.71
2016-03-30T10:32:29.635Z,1004.72
2016-03-30T10:33:28.841Z,1004.73
2016-03-30T10:34:28.844Z,1004.76
2016-03-30T10:35:28.830Z,1004.73
2016-03-30T10:36:28.834Z,1004.77
2016-03-30T10:37:28.836Z,1004.8
2016-03-30T10:38:28.839Z,1004.78
2016-03-30T10:39:28.841Z,1004.84
2016-03-30T10:40:28.828Z,1004.92
2016-03-30T10:41:28.830Z,1004.9
2016-03-30T10:42:28.834Z,1004.88
2016-03-30T10:43:28.821Z,1004.95
2016-03-30T10:44:28.824Z,1004.91
2016-03-30T10:45:28.827Z,1004.95
2016-03-30T10:46:28.829Z,1004.92
2016-03-30T10:47:28.831Z,1004.99
2016-03-30T10:48:28.834Z,1005.03
2016-03-30T10:49:28.821Z,1005.02
2016-03-30T10:50:28.824Z,1005.01
2016-03-30T10:51:28.827Z,1005.01
2016-03-30T10:52:28.829Z,1005
2016-03-30T10:53:28.816Z,1005.06
2016-03-30T10:54:28.819Z,1005.07
2016-03-30T10:55:28.821Z,1004.93
2016-03-30T10:56:28.824Z,1004.93
2016-03-30T10:57:28.826Z,1005.01
2016-03-30T10:58:28.814Z,1005.03
2016-03-30T10:59:28.817Z,1005.01
2016-03-30T11:00:28.820Z,1004.96
2016-03-30T11:01:28.822Z,1005.05
2016-03-30T11:02:28.825Z,1005.01
2016-03-30T11:03:28.828Z,1005.06
2016-03-30T11:04:28.814Z,1005.07
2016-03-30T11:05:28.818Z,1005.12
2016-03-30T11:06:28.820Z,1005.1
2016-03-30T11:07:28.823Z,1005.14
2016-03-30T11:08:28.825Z,1005.17
2016-03-30T11:09:28.813Z,1005.16
2016-03-30T11:10:28.815Z,1005.16
2016-03-30T11:11:28.818Z,1005.12
2016-03-30T11:12:28.821Z,1005.09
2016-03-30T11:13:28.824Z,1005.1
2016-03-30T11:14:28.826Z,1005.01
2016-03-30T11:15:28.829Z,1004.98
2016-03-30T11:16:28.831Z,1004.97
2016-03-30T11:17:28.835Z,1004.99
2016-03-30T11:18:28.821Z,1004.94
2016-03-30T11:19:28.824Z,1004.94
2016-03-30T11:20:28.826Z,1004.93
2016-03-30T11:21:28.829Z,1004.96
2016-03-30T11:22:28.832Z,1004.98
2016-03-30T11:23:28.835Z,1004.99
2016-03-30T11:24:28.821Z,1005.01
2016-03-30T11:25:28.824Z,1004.97
2016-03-30T11:26:28.827Z,1005.01
2016-03-30T11:27:28.829Z,1004.99
2016-03-30T11:28:28.832Z,1004.96
2016-03-30T11:29:28.835Z,1004.97
2016-03-30T11:30:28.837Z,1004.96
2016-03-30T11:31:28.840Z,1004.9
2016-03-30T11:32:28.843Z,1004.9
2016-03-30T11:33:28.831Z,1004.94
2016-03-30T11:34:28.833Z,1004.95
2016-03-30T11:35:28.851Z,1004.9
2016-03-30T11:36:28.838Z,1004.82
2016-03-30T11:37:28.841Z,1004.77
2016-03-30T11:38:28.844Z,1004.8
2016-03-30T11:39:28.940Z,1004.79
2016-03-30T11:40:28.850Z,1004.75
2016-03-30T11:41:28.836Z,1004.83
2016-03-30T11:42:28.839Z,1004.86
2016-03-30T11:43:28.857Z,1004.82
2016-03-30T11:44:29.203Z,1004.85
2016-03-30T11:45:28.847Z,1004.87
2016-03-30T11:46:28.850Z,1004.92
2016-03-30T11:47:28.852Z,1004.85
2016-03-30T11:48:28.854Z,1004.84
2016-03-30T11:49:29.576Z,1004.85
2016-03-30T11:50:28.860Z,1004.85
2016-03-30T11:51:28.863Z,1004.77
2016-03-30T11:52:28.849Z,1004.83
2016-03-30T11:53:29.040Z,1004.86
2016-03-30T11:54:28.855Z,1004.86
2016-03-30T11:55:28.858Z,1004.84
2016-03-30T11:56:28.861Z,1004.8
2016-03-30T11:57:28.863Z,1004.81
2016-03-30T11:58:28.865Z,1004.91
2016-03-30T11:59:28.869Z,1004.82
2016-03-30T12:00:28.856Z,1004.85
2016-03-30T12:01:28.874Z,1004.85
2016-03-30T12:02:28.861Z,1004.86
2016-03-30T12:03:28.864Z,1004.87
2016-03-30T12:04:28.867Z,1004.86
2016-03-30T12:05:28.870Z,1004.81
2016-03-30T12:06:28.856Z,1004.81
2016-03-30T12:07:28.858Z,1004.86
2016-03-30T12:08:28.861Z,1004.85
2016-03-30T12:09:28.869Z,1004.87
2016-03-30T12:10:28.855Z,1005
2016-03-30T12:11:28.874Z,1004.96
2016-03-30T12:12:28.876Z,1004.99
2016-03-30T12:13:28.863Z,1005.01
2016-03-30T12:14:28.865Z,1005
2016-03-30T12:15:28.869Z,1004.95
2016-03-30T12:16:28.871Z,1004.93
2016-03-30T12:17:28.873Z,1004.87
2016-03-30T12:18:28.876Z,1004.9
2016-03-30T12:19:28.880Z,1004.99
2016-03-30T12:20:28.867Z,1005